Time;durP1;ratioP1;P1;durP2;ratioP2;P2;SDS_P1;SDS_P2;PMS_P1;PMS_P2;Temp;Humidity;BMP_temperature;BMP_pressure;BME280_temperature;BME280_humidity;BME280_pressure;Samples;Min_cycle;Max_cycle;Signal;HPM_P1;HPM_P2
2023/07/25 00:02:20;;;;;;;8.07;1.62;;;14.90;99.90;;;;;;7286712;32;20595;-56
2023/07/25 00:06:22;;;;;;;4.93;1.50;;;15.00;99.90;;;;;;7285513;32;20315;-57
2023/07/25 00:10:23;;;;;;;5.40;1.80;;;14.90;99.90;;;;;;7278324;32;20104;-56
2023/07/25 00:14:25;;;;;;;5.53;1.87;;;14.90;99.90;;;;;;7281766;32;20443;-54
2023/07/25 00:18:27;;;;;;;3.08;1.60;;;15.00;99.90;;;;;;7290114;32;20130;-55
2023/07/25 00:22:29;;;;;;;5.47;2.33;;;14.90;99.90;;;;;;7285842;32;20100;-54
2023/07/25 00:26:30;;;;;;;4.37;1.67;;;14.90;99.90;;;;;;7278645;32;20526;-56
2023/07/25 00:30:32;;;;;;;5.55;1.67;;;14.90;99.90;;;;;;7284774;32;20203;-56
2023/07/25 00:34:34;;;;;;;4.65;1.62;;;14.80;99.90;;;;;;7287000;32;20142;-57
2023/07/25 00:38:35;;;;;;;5.68;1.77;;;14.90;99.90;;;;;;7291206;32;20131;-57
2023/07/25 00:42:37;;;;;;;4.95;1.73;;;14.90;99.90;;;;;;7284254;32;20107;-57
2023/07/25 00:46:42;;;;;;;5.57;1.80;;;14.90;99.90;;;;;;7279566;32;20108;-57
2023/07/25 00:50:44;;;;;;;3.20;1.60;;;14.90;99.90;;;;;;7290020;32;20210;-57
2023/07/25 00:54:48;;;;;;;9.43;1.95;;;14.80;99.90;;;;;;7281045;32;20508;-57
2023/07/25 00:58:50;;;;;;;5.10;2.15;;;14.80;99.90;;;;;;7285158;32;20134;-56
2023/07/25 01:02:52;;;;;;;2.47;1.73;;;14.90;99.90;;;;;;7285341;32;20215;-56
2023/07/25 01:06:56;;;;;;;5.45;1.92;;;14.80;99.90;;;;;;7284947;32;20138;-56
2023/07/25 01:10:57;;;;;;;4.43;1.90;;;14.80;99.90;;;;;;7300504;32;20119;-57
2023/07/25 01:14:59;;;;;;;2.87;1.83;;;14.80;99.90;;;;;;7300626;32;20160;-56
2023/07/25 01:19:01;;;;;;;5.78;2.20;;;14.70;99.90;;;;;;7296066;32;20123;-57
2023/07/25 01:23:06;;;;;;;4.62;1.90;;;14.70;99.90;;;;;;7285202;32;20108;-57
2023/07/25 01:27:08;;;;;;;5.90;1.70;;;14.80;99.90;;;;;;7294862;32;20157;-57
2023/07/25 01:31:10;;;;;;;6.62;2.20;;;14.80;99.90;;;;;;7289884;32;20135;-56
2023/07/25 01:35:12;;;;;;;5.18;2.20;;;14.70;99.90;;;;;;7288941;32;20342;-55
2023/07/25 01:39:13;;;;;;;4.53;2.03;;;14.70;99.90;;;;;;7287642;32;20341;-55
2023/07/25 01:43:15;;;;;;;6.50;2.15;;;14.70;99.90;;;;;;7287387;32;20317;-55
2023/07/25 01:47:17;;;;;;;6.47;2.40;;;14.70;99.90;;;;;;7283698;32;20181;-56
2023/07/25 01:51:19;;;;;;;7.43;2.47;;;14.70;99.90;;;;;;7282967;32;20108;-56
2023/07/25 01:55:21;;;;;;;5.70;2.12;;;14.70;99.90;;;;;;7275282;32;20552;-55
2023/07/25 01:59:23;;;;;;;5.37;2.05;;;14.70;99.90;;;;;;7292086;32;20095;-56
2023/07/25 02:03:25;;;;;;;3.75;2.03;;;14.70;99.90;;;;;;7295315;32;20674;-56
2023/07/25 02:07:27;;;;;;;7.50;2.30;;;14.70;99.90;;;;;;7285402;32;20468;-55
2023/07/25 02:11:29;;;;;;;7.20;2.22;;;14.60;99.90;;;;;;7286950;32;20498;-56
2023/07/25 02:15:31;;;;;;;5.18;2.45;;;14.60;99.90;;;;;;7285119;32;20104;-55
2023/07/25 02:19:32;;;;;;;4.95;2.25;;;14.50;99.90;;;;;;7291389;32;20647;-55
2023/07/25 02:23:34;;;;;;;4.87;2.25;;;14.40;99.90;;;;;;7284291;32;20554;-55
2023/07/25 02:27:36;;;;;;;7.25;2.12;;;14.40;99.90;;;;;;7280859;32;20517;-55
2023/07/25 02:31:38;;;;;;;4.72;2.10;;;14.30;99.90;;;;;;7280966;32;20218;-56
2023/07/25 02:35:40;;;;;;;7.37;1.98;;;14.10;99.90;;;;;;7280869;32;20629;-56
2023/07/25 02:39:41;;;;;;;9.48;2.75;;;14.00;99.90;;;;;;7291296;32;20154;-56
2023/07/25 02:43:43;;;;;;;5.07;2.10;;;13.90;99.90;;;;;;7286625;32;20195;-55
2023/07/25 02:47:45;;;;;;;7.07;3.08;;;13.80;99.90;;;;;;7286797;32;20103;-55
2023/07/25 02:51:46;;;;;;;6.35;2.53;;;13.80;99.90;;;;;;7290173;32;20794;-55
2023/07/25 02:55:48;;;;;;;5.90;2.90;;;13.70;99.90;;;;;;7285916;32;20120;-56
2023/07/25 02:59:50;;;;;;;5.15;2.80;;;13.60;99.90;;;;;;7285353;32;20120;-56
2023/07/25 03:03:51;;;;;;;6.25;2.97;;;13.50;99.90;;;;;;7280401;32;20163;-55
2023/07/25 03:07:53;;;;;;;7.35;2.85;;;13.40;99.90;;;;;;7283451;32;20194;-56
2023/07/25 03:11:55;;;;;;;4.12;2.60;;;13.50;99.90;;;;;;7282056;32;20158;-56
2023/07/25 03:15:57;;;;;;;8.63;2.65;;;13.30;99.90;;;;;;7286100;32;20458;-56
2023/07/25 03:19:59;;;;;;;5.10;3.10;;;13.30;99.90;;;;;;7278842;32;20207;-56
2023/07/25 03:24:00;;;;;;;4.45;2.72;;;13.20;99.90;;;;;;7302046;32;20127;-57
2023/07/25 03:28:02;;;;;;;5.57;2.78;;;13.10;99.90;;;;;;7298809;32;20132;-56
2023/07/25 03:32:04;;;;;;;3.80;2.60;;;13.20;99.90;;;;;;7298950;32;20120;-55
2023/07/25 03:36:07;;;;;;;11.73;2.85;;;13.10;99.90;;;;;;7287272;32;20184;-56
2023/07/25 03:40:09;;;;;;;4.35;2.67;;;13.10;99.90;;;;;;7305341;32;20543;-56
2023/07/25 03:44:16;;;;;;;5.32;2.53;;;13.20;99.90;;;;;;7286957;32;20439;-56
2023/07/25 03:48:18;;;;;;;5.45;2.90;;;13.20;99.90;;;;;;7293058;32;20231;-56
2023/07/25 03:52:20;;;;;;;4.12;2.70;;;13.30;99.90;;;;;;7308155;32;20095;-57
2023/07/25 03:56:22;;;;;;;5.53;2.50;;;13.20;99.90;;;;;;7300322;32;20126;-55
2023/07/25 04:00:23;;;;;;;6.30;3.20;;;13.30;99.90;;;;;;7299131;32;20092;-55
2023/07/25 04:04:25;;;;;;;8.30;2.78;;;13.30;99.90;;;;;;7307489;32;20123;-55
2023/07/25 04:08:27;;;;;;;4.78;2.83;;;13.30;99.90;;;;;;7309897;32;20126;-56
2023/07/25 04:12:29;;;;;;;8.43;2.95;;;13.30;99.90;;;;;;7288156;32;20111;-57
2023/07/25 04:16:31;;;;;;;6.18;3.22;;;13.20;99.90;;;;;;7286662;32;20097;-56
2023/07/25 04:20:32;;;;;;;7.10;2.65;;;13.20;99.90;;;;;;7298117;32;20245;-56
2023/07/25 04:24:34;;;;;;;6.70;3.17;;;13.20;99.90;;;;;;7298178;32;20627;-56
2023/07/25 04:28:36;;;;;;;4.93;2.95;;;13.20;99.90;;;;;;7310953;32;20710;-56
2023/07/25 04:32:37;;;;;;;6.30;3.30;;;13.20;99.90;;;;;;7298798;32;20122;-56
2023/07/25 04:36:39;;;;;;;7.12;3.12;;;13.10;99.90;;;;;;7299415;32;20676;-57
2023/07/25 04:40:44;;;;;;;10.27;3.42;;;13.10;99.90;;;;;;7302608;32;20123;-56
2023/07/25 04:44:46;;;;;;;5.30;3.17;;;13.00;99.90;;;;;;7294404;32;20272;-55
2023/07/25 04:48:48;;;;;;;5.50;2.97;;;13.00;99.90;;;;;;7301287;32;20112;-56
2023/07/25 04:52:49;;;;;;;7.37;3.10;;;13.00;99.90;;;;;;7296965;32;20119;-56
2023/07/25 04:56:51;;;;;;;4.00;3.20;;;13.10;99.90;;;;;;7290404;32;20112;-56
2023/07/25 05:00:53;;;;;;;3.53;2.90;;;13.20;99.90;;;;;;7295816;32;20126;-56
2023/07/25 05:04:54;;;;;;;7.12;3.28;;;13.40;99.90;;;;;;7277136;32;20222;-56
2023/07/25 05:08:56;;;;;;;7.57;3.20;;;13.50;99.90;;;;;;7289262;32;20161;-57
2023/07/25 05:12:58;;;;;;;6.53;3.17;;;13.60;99.90;;;;;;7298724;32;20142;-56
2023/07/25 05:17:00;;;;;;;8.90;3.62;;;13.70;99.90;;;;;;7286743;32;20688;-57
2023/07/25 05:21:01;;;;;;;6.28;3.87;;;13.70;99.90;;;;;;7287673;32;20799;-56
2023/07/25 05:25:03;;;;;;;5.90;3.62;;;13.70;99.90;;;;;;7267381;32;20693;-56
2023/07/25 05:29:05;;;;;;;8.20;3.72;;;13.80;99.90;;;;;;7279860;32;20277;-56
2023/07/25 05:33:07;;;;;;;9.93;3.80;;;13.90;99.90;;;;;;7286894;32;20100;-56
2023/07/25 05:37:09;;;;;;;10.52;4.12;;;13.90;99.90;;;;;;7277534;32;20490;-56
2023/07/25 05:41:11;;;;;;;6.32;4.12;;;14.10;99.90;;;;;;7278844;32;20112;-57
2023/07/25 05:45:12;;;;;;;6.20;4.43;;;14.20;99.90;;;;;;7282473;32;20127;-57
2023/07/25 05:49:14;;;;;;;9.30;4.37;;;14.30;99.90;;;;;;7282471;32;20157;-57
2023/07/25 05:53:16;;;;;;;11.40;4.80;;;14.60;99.90;;;;;;7264247;32;20183;-57
2023/07/25 05:57:17;;;;;;;9.15;4.18;;;14.80;99.90;;;;;;7286076;32;20230;-57
2023/07/25 06:01:19;;;;;;;10.48;4.00;;;14.90;99.90;;;;;;7282269;32;20132;-57
2023/07/25 06:05:21;;;;;;;8.30;4.12;;;14.90;99.90;;;;;;7292974;32;20151;-57
2023/07/25 06:09:23;;;;;;;7.78;3.42;;;14.90;99.90;;;;;;7286636;32;20203;-57
2023/07/25 06:13:24;;;;;;;8.23;2.35;;;14.80;99.90;;;;;;7286201;32;20270;-56
2023/07/25 06:17:26;;;;;;;7.70;3.00;;;15.00;99.90;;;;;;7288199;32;20305;-57
2023/07/25 06:21:28;;;;;;;9.98;3.20;;;14.90;99.90;;;;;;7289978;32;20424;-57
2023/07/25 06:25:31;;;;;;;9.07;3.03;;;14.90;99.90;;;;;;7294270;32;20130;-56
2023/07/25 06:29:33;;;;;;;10.60;3.37;;;15.00;99.90;;;;;;7284452;32;20784;-57
2023/07/25 06:33:34;;;;;;;9.77;3.25;;;15.40;99.90;;;;;;7291257;32;20175;-56
2023/07/25 06:37:37;;;;;;;8.38;2.40;;;16.30;99.90;;;;;;7290251;32;20178;-58
2023/07/25 06:41:39;;;;;;;7.28;2.65;;;17.40;99.90;;;;;;7287439;32;20124;-57
2023/07/25 06:45:41;;;;;;;9.82;1.95;;;18.40;99.90;;;;;;7280702;32;20108;-57
2023/07/25 06:49:43;;;;;;;5.10;1.85;;;19.50;99.90;;;;;;7295677;32;20337;-57
2023/07/25 06:53:44;;;;;;;9.02;1.83;;;20.40;99.90;;;;;;7284957;32;20156;-57
2023/07/25 06:57:46;;;;;;;8.02;1.52;;;20.70;99.90;;;;;;7280464;32;20108;-57
2023/07/25 07:01:48;;;;;;;10.73;1.60;;;20.00;99.90;;;;;;7282342;32;20140;-57
2023/07/25 07:05:54;;;;;;;4.57;1.77;;;20.00;99.90;;;;;;7285174;32;20100;-57
2023/07/25 07:09:55;;;;;;;8.80;1.40;;;19.90;99.90;;;;;;7280363;32;20225;-57
2023/07/25 07:13:57;;;;;;;6.50;1.42;;;19.60;99.90;;;;;;7289296;32;20104;-57
2023/07/25 07:17:59;;;;;;;6.18;1.60;;;19.20;99.90;;;;;;7286988;32;20183;-57
2023/07/25 07:22:01;;;;;;;6.68;1.45;;;18.20;99.90;;;;;;7291568;32;20177;-57
2023/07/25 07:26:03;;;;;;;6.60;1.20;;;18.40;99.90;;;;;;7285867;32;20165;-57
2023/07/25 07:30:05;;;;;;;5.82;1.25;;;18.40;99.90;;;;;;7284971;32;20479;-57
2023/07/25 07:34:15;;;;;;;6.70;1.33;;;18.40;99.90;;;;;;7289138;32;20179;-58
2023/07/25 07:38:17;;;;;;;5.40;1.48;;;18.30;99.90;;;;;;7285253;32;20108;-57
2023/07/25 07:42:18;;;;;;;8.63;1.15;;;17.90;99.90;;;;;;7282496;32;20534;-57
2023/07/25 07:46:20;;;;;;;6.22;1.37;;;18.00;99.90;;;;;;7279276;32;20108;-57
2023/07/25 07:50:22;;;;;;;9.82;1.70;;;17.60;99.90;;;;;;7283323;32;20123;-56
2023/07/25 07:54:24;;;;;;;6.05;1.12;;;17.50;99.90;;;;;;7280234;32;20123;-57
2023/07/25 07:58:25;;;;;;;5.70;1.30;;;17.50;99.90;;;;;;7282790;32;20197;-56
2023/07/25 08:02:27;;;;;;;6.75;1.65;;;17.50;99.90;;;;;;7279357;32;20132;-57
2023/07/25 08:06:29;;;;;;;8.07;1.45;;;17.40;99.90;;;;;;7278962;32;20491;-56
2023/07/25 08:10:31;;;;;;;8.35;1.35;;;17.30;99.90;;;;;;7281024;32;20254;-56
2023/07/25 08:14:32;;;;;;;2.95;1.00;;;17.20;99.90;;;;;;7281352;32;20520;-58
2023/07/25 08:18:34;;;;;;;8.82;1.45;;;17.30;99.90;;;;;;7279922;32;20177;-57
2023/07/25 08:22:36;;;;;;;5.37;1.60;;;17.30;99.90;;;;;;7280279;32;20258;-56
2023/07/25 08:26:38;;;;;;;4.87;1.42;;;17.10;99.90;;;;;;7280825;32;20547;-56
2023/07/25 08:30:39;;;;;;;5.75;1.15;;;17.10;99.90;;;;;;7279778;32;20149;-56
2023/07/25 08:34:41;;;;;;;6.20;1.77;;;17.20;99.90;;;;;;7283933;32;20111;-57
2023/07/25 08:38:43;;;;;;;8.52;1.37;;;17.10;99.90;;;;;;7279752;32;20099;-56
2023/07/25 08:42:47;;;;;;;7.55;1.40;;;17.10;99.90;;;;;;7277722;32;20105;-56
2023/07/25 08:46:51;;;;;;;4.57;1.08;;;17.20;99.90;;;;;;7281268;32;20161;-57
2023/07/25 08:50:56;;;;;;;7.10;1.50;;;17.60;99.90;;;;;;7279060;32;20116;-57
2023/07/25 08:54:57;;;;;;;3.78;1.15;;;18.00;99.90;;;;;;7280232;32;20230;-57
2023/07/25 08:59:00;;;;;;;8.95;2.50;;;18.70;99.90;;;;;;7277828;32;20128;-56
2023/07/25 09:03:03;;;;;;;6.97;2.70;;;19.00;99.90;;;;;;7278020;32;20119;-57
2023/07/25 09:07:05;;;;;;;3.30;1.50;;;19.50;99.90;;;;;;7279352;32;20286;-56
2023/07/25 09:11:12;;;;;;;4.68;1.40;;;19.70;99.90;;;;;;7278882;32;20112;-57
2023/07/25 09:15:14;;;;;;;4.95;1.30;;;19.70;99.90;;;;;;7285676;32;20222;-56
2023/07/25 09:19:16;;;;;;;4.45;1.98;;;19.60;99.90;;;;;;7280603;32;20793;-57
2023/07/25 09:23:21;;;;;;;6.07;2.87;;;19.80;99.90;;;;;;7282478;32;20582;-57
2023/07/25 09:27:24;;;;;;;7.18;3.17;;;19.60;99.90;;;;;;7278183;32;20219;-57
2023/07/25 09:31:27;;;;;;;7.97;2.35;;;20.40;99.90;;;;;;7280631;32;20249;-56
2023/07/25 09:35:28;;;;;;;7.30;2.42;;;20.90;99.90;;;;;;7282533;32;20250;-57
2023/07/25 09:39:33;;;;;;;8.75;3.10;;;20.80;99.90;;;;;;7288212;32;20210;-56
2023/07/25 09:43:35;;;;;;;8.07;3.83;;;20.60;99.90;;;;;;7290710;32;20104;-57
2023/07/25 09:47:37;;;;;;;5.62;3.40;;;20.20;99.90;;;;;;7287546;32;20174;-58
2023/07/25 09:51:55;;;;;;;6.72;3.53;;;19.70;99.90;;;;;;7282468;32;20466;-60
2023/07/25 09:55:57;;;;;;;9.05;4.20;;;19.60;99.90;;;;;;7282825;32;20123;-57
2023/07/25 10:00:01;;;;;;;8.23;3.67;;;20.00;99.90;;;;;;7288165;32;20126;-56
2023/07/25 10:04:03;;;;;;;6.80;2.58;;;20.40;99.90;;;;;;7281659;32;20286;-57
2023/07/25 10:08:08;;;;;;;8.80;2.90;;;20.50;99.90;;;;;;7285929;32;20479;-57
2023/07/25 10:12:12;;;;;;;8.15;3.00;;;20.30;99.90;;;;;;7287710;32;20424;-57
2023/07/25 10:16:14;;;;;;;6.50;2.08;;;20.50;99.90;;;;;;7287395;32;20158;-56
2023/07/25 10:20:24;;;;;;;6.97;2.50;;;20.60;99.90;;;;;;7282734;32;20202;-58
2023/07/25 10:24:33;;;;;;;7.25;2.75;;;20.60;99.90;;;;;;7282480;32;20199;-57
2023/07/25 10:28:35;;;;;;;6.25;3.03;;;20.60;99.90;;;;;;7283089;32;20779;-56
2023/07/25 10:32:46;;;;;;;7.37;2.80;;;20.10;99.90;;;;;;7286372;32;20105;-57
2023/07/25 10:37:20;;;;;;;6.45;3.08;;;20.90;99.90;;;;;;7286769;32;20107;-57
2023/07/25 10:41:22;;;;;;;9.60;2.62;;;20.80;99.90;;;;;;7283903;32;20112;-56
2023/07/25 10:45:30;;;;;;;8.02;2.80;;;20.00;99.90;;;;;;7281021;32;20104;-56
2023/07/25 10:49:55;;;;;;;6.15;3.08;;;19.50;99.90;;;;;;7282006;32;20104;-57
2023/07/25 10:54:08;;;;;;;7.68;2.58;;;18.90;99.90;;;;;;7282646;32;20100;-56
2023/07/25 10:58:09;;;;;;;5.82;2.20;;;18.30;99.90;;;;;;7288710;32;20108;-57
2023/07/25 11:02:28;;;;;;;5.35;1.67;;;18.00;99.90;;;;;;7282641;32;20131;-56
2023/07/25 11:06:35;;;;;;;9.93;1.87;;;17.70;99.90;;;;;;7285087;32;20528;-56
2023/07/25 11:10:37;;;;;;;6.30;1.80;;;17.30;99.90;;;;;;7280324;32;20207;-57
2023/07/25 11:14:44;;;;;;;8.07;1.60;;;17.20;99.90;;;;;;7294148;32;20092;-56
2023/07/25 11:18:50;;;;;;;2.95;1.60;;;17.40;99.90;;;;;;7283942;32;20188;-56
2023/07/25 11:22:53;;;;;;;5.97;1.40;;;17.50;99.90;;;;;;7280513;32;20127;-56
2023/07/25 11:26:55;;;;;;;8.75;2.17;;;17.70;99.90;;;;;;7288945;32;20254;-57
2023/07/25 11:30:57;;;;;;;6.90;2.20;;;18.10;99.90;;;;;;7288477;32;20203;-57
2023/07/25 11:35:03;;;;;;;8.73;2.60;;;18.90;99.90;;;;;;7284497;32;20206;-56
2023/07/25 11:39:06;;;;;;;8.15;1.90;;;18.90;99.90;;;;;;7280717;32;20107;-56
2023/07/25 11:43:12;;;;;;;6.70;2.15;;;19.00;99.90;;;;;;7285344;32;20105;-57
2023/07/25 11:47:13;;;;;;;10.23;2.40;;;18.40;99.90;;;;;;7279438;32;20231;-56
2023/07/25 11:51:15;;;;;;;5.32;1.98;;;18.10;99.90;;;;;;7285061;32;20134;-56
2023/07/25 11:55:17;;;;;;;10.48;2.37;;;17.80;99.90;;;;;;7291027;32;20466;-57
2023/07/25 11:59:19;;;;;;;9.13;2.47;;;17.40;99.90;;;;;;7279742;32;20108;-57
2023/07/25 12:03:25;;;;;;;8.23;3.75;;;17.10;99.90;;;;;;7281549;32;20557;-57
2023/07/25 12:07:27;;;;;;;7.47;2.55;;;17.10;99.90;;;;;;7284742;32;20207;-57
2023/07/25 12:11:29;;;;;;;10.10;2.25;;;17.10;99.90;;;;;;7289417;32;20223;-56
2023/07/25 12:15:46;;;;;;;11.93;2.50;;;16.90;99.90;;;;;;7287080;32;20190;-57
2023/07/25 12:19:52;;;;;;;8.70;2.10;;;16.90;99.90;;;;;;7278099;32;20211;-57
2023/07/25 12:23:57;;;;;;;8.65;2.20;;;17.00;99.90;;;;;;7272247;32;20181;-57
2023/07/25 12:28:03;;;;;;;10.27;2.22;;;16.90;99.90;;;;;;7289008;32;20227;-57
2023/07/25 12:32:05;;;;;;;7.85;2.30;;;17.10;99.90;;;;;;7285064;32;20100;-56
2023/07/25 12:36:07;;;;;;;5.37;2.08;;;17.20;99.90;;;;;;7279240;32;20104;-56
2023/07/25 12:40:09;;;;;;;7.53;1.98;;;17.30;99.90;;;;;;7284056;32;20127;-57
2023/07/25 12:44:11;;;;;;;8.18;2.35;;;17.40;99.90;;;;;;7281186;32;20123;-57
2023/07/25 12:48:13;;;;;;;3.78;1.70;;;17.70;99.90;;;;;;7289113;32;20137;-57
2023/07/25 12:52:16;;;;;;;9.93;1.80;;;17.80;99.90;;;;;;7281843;32;20122;-56
2023/07/25 12:56:18;;;;;;;7.32;1.52;;;17.80;99.90;;;;;;7280974;32;20673;-58
2023/07/25 13:00:20;;;;;;;4.75;1.65;;;17.80;99.90;;;;;;7282141;32;20717;-57
2023/07/25 13:04:21;;;;;;;9.38;1.75;;;18.10;99.90;;;;;;7279636;32;20415;-57
2023/07/25 13:08:24;;;;;;;3.70;1.42;;;18.10;99.90;;;;;;7282949;32;20104;-57
2023/07/25 13:12:25;;;;;;;6.12;1.23;;;18.30;99.90;;;;;;7283471;32;20108;-57
2023/07/25 13:16:28;;;;;;;5.68;1.20;;;18.50;99.90;;;;;;7286169;32;20333;-57
2023/07/25 13:20:30;;;;;;;3.67;1.17;;;18.30;99.90;;;;;;7283644;32;20100;-57
2023/07/25 13:24:32;;;;;;;6.22;1.10;;;18.40;99.90;;;;;;7286495;32;20169;-58
2023/07/25 13:28:33;;;;;;;6.85;1.50;;;18.20;99.90;;;;;;7290559;32;20134;-57
2023/07/25 13:32:35;;;;;;;3.42;0.85;;;18.20;99.90;;;;;;7292269;32;20453;-57
2023/07/25 13:36:37;;;;;;;4.43;1.05;;;18.00;99.90;;;;;;7283403;32;20136;-57
2023/07/25 13:40:39;;;;;;;4.50;0.70;;;17.80;99.90;;;;;;7286444;32;20100;-57
2023/07/25 13:44:41;;;;;;;4.28;0.75;;;17.80;99.90;;;;;;7291062;32;20195;-57
2023/07/25 13:48:44;;;;;;;4.15;0.90;;;17.80;99.90;;;;;;7283041;32;20132;-60
2023/07/25 13:52:46;;;;;;;4.78;1.30;;;17.70;99.90;;;;;;7282584;32;20171;-57
2023/07/25 13:56:48;;;;;;;5.37;1.60;;;17.60;99.90;;;;;;7286012;32;20620;-58
2023/07/25 14:00:50;;;;;;;6.00;1.50;;;17.60;99.90;;;;;;7283142;32;20510;-57
2023/07/25 14:04:51;;;;;;;5.47;1.40;;;17.50;99.90;;;;;;7288897;32;20132;-57
2023/07/25 14:08:53;;;;;;;5.32;1.15;;;17.50;99.90;;;;;;7287917;32;20170;-56
2023/07/25 14:12:57;;;;;;;5.40;1.30;;;17.30;99.90;;;;;;7285330;32;20247;-56
2023/07/25 14:17:01;;;;;;;5.12;1.45;;;17.10;99.90;;;;;;7292923;32;20123;-56
2023/07/25 14:21:02;;;;;;;7.70;1.30;;;17.00;99.90;;;;;;7284786;32;20506;-57
2023/07/25 14:25:05;;;;;;;5.72;1.45;;;17.00;99.90;;;;;;7281758;32;20251;-56
2023/07/25 14:29:07;;;;;;;5.30;1.40;;;16.90;99.90;;;;;;7284254;32;20108;-57
2023/07/25 14:33:09;;;;;;;5.60;1.30;;;17.00;99.90;;;;;;7287792;32;20111;-57
2023/07/25 14:37:11;;;;;;;7.82;1.35;;;17.00;99.90;;;;;;7281478;32;20100;-57
2023/07/25 14:41:12;;;;;;;6.03;1.37;;;17.10;99.90;;;;;;7280504;32;20178;-57
2023/07/25 14:45:14;;;;;;;4.80;1.15;;;17.20;99.90;;;;;;7284313;32;20694;-57
2023/07/25 14:49:16;;;;;;;4.57;1.27;;;17.60;99.90;;;;;;7284006;32;20588;-57
2023/07/25 14:53:19;;;;;;;6.68;1.40;;;18.10;99.90;;;;;;7283791;32;20122;-58
2023/07/25 14:57:22;;;;;;;4.18;1.52;;;18.20;99.90;;;;;;7293114;32;20331;-57
2023/07/25 15:01:24;;;;;;;6.55;1.27;;;18.30;99.90;;;;;;7281192;32;20235;-58
2023/07/25 15:05:26;;;;;;;4.78;1.27;;;18.30;99.90;;;;;;7287148;32;20775;-58
2023/07/25 15:09:28;;;;;;;6.20;1.10;;;18.50;99.90;;;;;;7282580;32;20956;-57
2023/07/25 15:13:29;;;;;;;6.82;1.25;;;18.70;99.90;;;;;;7283176;32;20511;-57
2023/07/25 15:17:31;;;;;;;6.90;1.15;;;19.10;99.90;;;;;;7281813;32;20183;-57
2023/07/25 15:21:33;;;;;;;7.00;1.40;;;19.40;99.90;;;;;;7283593;32;20123;-57
2023/07/25 15:25:35;;;;;;;2.12;0.80;;;19.50;99.90;;;;;;7281073;32;20104;-57
2023/07/25 15:29:37;;;;;;;5.30;0.98;;;19.60;99.90;;;;;;7279685;32;20124;-58
2023/07/25 15:33:38;;;;;;;5.65;1.02;;;19.60;99.90;;;;;;7287048;32;20686;-57
2023/07/25 15:37:40;;;;;;;1.92;0.90;;;19.70;99.90;;;;;;7280960;32;20105;-58
2023/07/25 15:41:42;;;;;;;4.95;0.98;;;19.60;99.90;;;;;;7286529;32;20184;-58
2023/07/25 15:45:44;;;;;;;6.37;0.80;;;19.80;99.90;;;;;;7284700;32;20151;-57
2023/07/25 15:49:46;;;;;;;4.10;0.40;;;19.90;99.90;;;;;;7285030;32;20100;-57
2023/07/25 15:53:48;;;;;;;2.20;0.40;;;20.10;99.90;;;;;;7280800;32;20100;-57
2023/07/25 15:57:49;;;;;;;2.95;0.50;;;20.10;99.90;;;;;;7286585;32;20143;-57
2023/07/25 16:01:51;;;;;;;1.42;0.50;;;20.30;99.90;;;;;;7280554;32;20408;-57
2023/07/25 16:05:54;;;;;;;4.20;0.65;;;19.80;99.90;;;;;;7279291;32;20325;-57
2023/07/25 16:09:56;;;;;;;1.90;0.50;;;19.70;99.90;;;;;;7277861;32;20584;-57
2023/07/25 16:13:58;;;;;;;2.55;0.60;;;19.70;99.90;;;;;;7289745;32;20179;-58
2023/07/25 16:18:00;;;;;;;3.55;0.98;;;19.60;99.90;;;;;;7279235;32;20112;-58
2023/07/25 16:22:01;;;;;;;2.15;0.50;;;19.40;99.90;;;;;;7265817;32;20129;-56
2023/07/25 16:26:04;;;;;;;1.75;0.50;;;19.30;99.90;;;;;;7279065;32;20101;-56
2023/07/25 16:30:06;;;;;;;4.50;0.50;;;19.30;99.90;;;;;;7286006;32;20567;-56
2023/07/25 16:34:08;;;;;;;2.90;0.55;;;19.40;99.90;;;;;;7284241;32;20191;-57
2023/07/25 16:38:10;;;;;;;2.70;0.50;;;19.60;99.90;;;;;;7286577;32;20111;-57
2023/07/25 16:42:13;;;;;;;1.80;0.43;;;19.50;99.90;;;;;;7279223;32;20166;-57
2023/07/25 16:46:15;;;;;;;4.47;0.60;;;19.40;99.90;;;;;;7291712;32;20100;-57
2023/07/25 16:50:16;;;;;;;3.97;0.68;;;19.60;99.90;;;;;;7279208;32;20499;-56
2023/07/25 16:54:19;;;;;;;5.70;0.60;;;19.10;99.90;;;;;;7279624;32;20297;-57
2023/07/25 16:58:20;;;;;;;2.97;0.68;;;19.10;99.90;;;;;;7281705;32;20131;-57
2023/07/25 17:02:23;;;;;;;4.22;0.68;;;19.00;99.90;;;;;;7281921;32;20115;-58
2023/07/25 17:06:24;;;;;;;2.78;0.65;;;18.80;99.90;;;;;;7288461;32;20104;-58
2023/07/25 17:10:26;;;;;;;1.52;0.40;;;18.80;99.90;;;;;;7283084;32;20108;-58
2023/07/25 17:14:28;;;;;;;2.83;0.60;;;18.90;99.90;;;;;;7283743;32;20251;-58
2023/07/25 17:18:30;;;;;;;3.55;0.50;;;19.10;99.90;;;;;;7284575;32;20188;-59
2023/07/25 17:22:32;;;;;;;3.60;0.50;;;19.00;99.90;;;;;;7290297;32;20457;-57
2023/07/25 17:26:33;;;;;;;3.40;0.35;;;18.90;99.90;;;;;;7280504;32;20157;-57
2023/07/25 17:30:35;;;;;;;3.58;0.47;;;19.00;99.90;;;;;;7291443;32;20175;-57
2023/07/25 17:34:37;;;;;;;2.55;0.52;;;19.00;99.90;;;;;;7291148;32;20231;-57
2023/07/25 17:38:39;;;;;;;1.55;0.43;;;18.90;99.90;;;;;;7284863;32;20117;-57
2023/07/25 17:42:41;;;;;;;1.80;0.52;;;18.70;99.90;;;;;;7281696;32;20134;-57
2023/07/25 17:46:42;;;;;;;2.17;0.47;;;18.30;99.90;;;;;;7278648;32;20169;-58
2023/07/25 17:50:48;;;;;;;3.78;0.73;;;18.10;99.90;;;;;;7287590;32;20739;-57
2023/07/25 17:54:50;;;;;;;2.15;0.52;;;18.00;99.90;;;;;;7300047;32;20104;-57
2023/07/25 17:58:52;;;;;;;2.90;0.57;;;17.90;99.90;;;;;;7289241;32;20190;-57
2023/07/25 18:02:53;;;;;;;3.60;0.80;;;18.00;99.90;;;;;;7283580;32;20215;-57
2023/07/25 18:06:55;;;;;;;2.10;0.60;;;18.00;99.90;;;;;;7284929;32;20108;-57
2023/07/25 18:10:57;;;;;;;2.47;0.70;;;18.10;99.90;;;;;;7283554;32;20123;-57
2023/07/25 18:14:59;;;;;;;1.73;0.50;;;18.00;99.90;;;;;;7288340;32;20230;-56
2023/07/25 18:19:01;;;;;;;2.92;0.60;;;18.00;99.90;;;;;;7282971;32;20139;-56
2023/07/25 18:23:02;;;;;;;3.37;0.60;;;18.00;99.90;;;;;;7289438;32;20494;-56
2023/07/25 18:27:04;;;;;;;1.98;0.52;;;17.80;99.90;;;;;;7282133;32;20124;-56
2023/07/25 18:31:07;;;;;;;1.35;0.40;;;17.60;99.90;;;;;;7282970;32;20104;-58
2023/07/25 18:35:09;;;;;;;2.92;0.65;;;17.60;99.90;;;;;;7286907;32;20121;-56
2023/07/25 18:39:13;;;;;;;2.33;0.70;;;17.70;99.90;;;;;;7281959;32;20124;-56
2023/07/25 18:43:19;;;;;;;2.20;0.60;;;17.40;99.90;;;;;;7288944;32;20562;-57
2023/07/25 18:47:20;;;;;;;2.55;0.50;;;17.20;99.90;;;;;;7284001;32;20530;-58
2023/07/25 18:51:35;;;;;;;2.67;0.50;;;17.10;99.90;;;;;;7293765;32;20115;-56
2023/07/25 18:55:39;;;;;;;2.22;0.65;;;16.80;99.90;;;;;;7299486;32;20261;-56
2023/07/25 18:59:41;;;;;;;1.75;0.70;;;16.80;99.90;;;;;;7287209;32;20510;-57
2023/07/25 19:03:42;;;;;;;3.30;1.37;;;16.70;99.90;;;;;;7272230;32;20100;-58
2023/07/25 19:07:44;;;;;;;3.53;1.40;;;16.60;99.90;;;;;;7281573;32;20100;-57
2023/07/25 19:11:46;;;;;;;4.93;3.12;;;16.40;99.90;;;;;;7280844;32;20116;-56
2023/07/25 19:15:48;;;;;;;5.43;0.90;;;16.20;99.90;;;;;;7294046;32;20149;-57
2023/07/25 19:19:49;;;;;;;1.10;0.60;;;15.90;99.90;;;;;;7283799;32;20462;-57
2023/07/25 19:23:51;;;;;;;2.22;0.80;;;15.70;99.90;;;;;;7283918;32;20147;-57
2023/07/25 19:27:53;;;;;;;3.83;0.68;;;15.50;99.90;;;;;;7283870;32;20120;-57
2023/07/25 19:31:55;;;;;;;4.35;0.90;;;15.30;99.90;;;;;;7281270;32;20176;-57
2023/07/25 19:35:58;;;;;;;1.65;0.50;;;15.20;99.90;;;;;;7284334;32;20135;-57
2023/07/25 19:40:02;;;;;;;3.10;1.08;;;15.00;99.90;;;;;;7281301;32;20252;-56
2023/07/25 19:44:05;;;;;;;2.78;0.90;;;14.80;99.90;;;;;;7281073;32;20104;-56
2023/07/25 19:48:08;;;;;;;3.30;0.90;;;14.60;99.90;;;;;;7280186;32;20708;-56
2023/07/25 19:52:10;;;;;;;2.92;1.00;;;14.40;99.90;;;;;;7269931;32;20344;-56
2023/07/25 19:56:12;;;;;;;2.08;1.10;;;14.30;99.90;;;;;;7287178;32;20470;-56
2023/07/25 20:00:14;;;;;;;2.65;1.00;;;14.20;99.90;;;;;;7289388;32;20293;-56
2023/07/25 20:04:15;;;;;;;4.90;0.82;;;14.00;99.90;;;;;;7279249;32;20771;-56
2023/07/25 20:08:17;;;;;;;3.67;1.00;;;13.90;99.90;;;;;;7279640;32;20238;-56
2023/07/25 20:12:19;;;;;;;2.12;0.70;;;13.70;99.90;;;;;;7285683;32;20187;-57
2023/07/25 20:16:21;;;;;;;2.28;0.77;;;13.50;99.90;;;;;;7281176;32;20204;-55
2023/07/25 20:20:22;;;;;;;3.42;0.88;;;13.40;99.90;;;;;;7279080;32;20204;-55
2023/07/25 20:24:24;;;;;;;3.85;0.70;;;13.20;99.90;;;;;;7278435;32;20123;-56
2023/07/25 20:28:27;;;;;;;5.07;0.80;;;13.10;99.90;;;;;;7285818;32;20112;-56
2023/07/25 20:32:28;;;;;;;3.10;1.20;;;13.00;99.90;;;;;;7285221;32;20597;-56
2023/07/25 20:36:30;;;;;;;2.58;0.90;;;13.00;99.90;;;;;;7280221;32;20668;-56
2023/07/25 20:40:33;;;;;;;4.47;0.80;;;12.90;99.90;;;;;;7277653;32;20466;-55
2023/07/25 20:44:35;;;;;;;2.08;0.80;;;12.80;99.90;;;;;;7285046;32;20633;-55
2023/07/25 20:48:37;;;;;;;3.97;0.80;;;12.70;99.90;;;;;;7278712;32;20191;-57
2023/07/25 20:52:38;;;;;;;2.28;0.80;;;12.70;99.90;;;;;;7280926;32;20846;-56
2023/07/25 20:56:40;;;;;;;4.82;1.00;;;12.50;99.90;;;;;;7280053;32;20198;-55
2023/07/25 21:00:42;;;;;;;1.67;0.80;;;12.40;99.90;;;;;;7285213;32;20164;-56